Latest Weather Observations for Warburto Point

IDS60801

Issued at 9:02 pm CST Tuesday 21 April 2015 (issued every 30 minutes, with the page automatically refreshed every 10 minutes)

About weather observations | Map of weather stations | Latest weather observations for SA | Other Formats
Station Details ID: 022053 Name: WARBURTO POINT Lat: -34.00 Lon: 137.53 Height: 1.0 m
Data from the previous 72 hours. | See also: Recent months for locations in South Australia
Date/Time
CST
Temp
°C
App
Temp
°C
Dew
Point
Rel
Hum
%
Delta-T
°C
Wind Press
QNH
hPa
Press
MSL
hPa
Rain
since 9 am
mm
Dir
 
Spd
km/h
Gust
km/h
Spd
kts
Gust
kts
21/09:00pm - - - - - SSE 24 30 13 16 - - -
21/08:30pm - - - - - SSE 20 30 11 16 - - -
21/08:00pm - - - - - SSE 26 32 14 17 - - -
21/07:30pm - - - - - SSE 26 30 14 16 - - -
21/07:00pm - - - - - SSE 22 30 12 16 - - -
21/06:30pm - - - - - SSE 24 30 13 16 - - -
21/06:00pm - - - - - SE 24 30 13 16 - - -
21/05:30pm - - - - - SE 24 32 13 17 - - -
21/05:00pm - - - - - SSE 22 28 12 15 - - -
21/04:30pm - - - - - SSE 20 28 11 15 - - -
21/04:00pm - - - - - SSE 20 28 11 15 - - -
21/03:30pm - - - - - SE 19 26 10 14 - - -
21/03:00pm - - - - - SSE 19 28 10 15 - - -
21/02:30pm - - - - - SE 22 28 12 15 - - -
21/02:00pm - - - - - SSE 19 24 10 13 - - -
21/01:30pm - - - - - SSE 19 26 10 14 - - -
21/01:00pm - - - - - SE 24 37 13 20 - - -
21/12:30pm - - - - - SE 24 33 13 18 - - -
21/12:00pm - - - - - ESE 20 30 11 16 - - -
21/11:30am - - - - - ESE 20 33 11 18 - - -
21/11:00am - - - - - ESE 26 35 14 19 - - -
21/10:30am - - - - - ESE 26 35 14 19 - - -
21/10:00am - - - - - ESE 22 32 12 17 - - -
21/09:30am - - - - - SE 24 32 13 17 - - -
21/09:00am - - - - - SE 17 26 9 14 - - -
21/08:30am - - - - - SE 13 15 7 8 - - -
21/08:00am - - - - - SE 11 13 6 7 - - -
21/07:30am - - - - - ESE 13 15 7 8 - - -
21/07:00am - - - - - SE 9 11 5 6 - - -
21/06:30am - - - - - SE 15 17 8 9 - - -
21/06:00am - - - - - SE 15 17 8 9 - - -
21/05:30am - - - - - SE 17 19 9 10 - - -
21/05:00am - - - - - SE 15 17 8 9 - - -
21/04:30am - - - - - SE 13 15 7 8 - - -
21/04:00am - - - - - SE 13 15 7 8 - - -
21/03:30am - - - - - ESE 13 15 7 8 - - -
21/03:00am - - - - - ESE 11 11 6 6 - - -
21/02:30am - - - - - ESE 11 13 6 7 - - -
21/02:00am - - - - - SE 15 17 8 9 - - -
21/01:30am - - - - - SE 15 19 8 10 - - -
21/01:00am - - - - - SE 11 15 6 8 - - -
21/12:30am - - - - - SE 13 15 7 8 - - -
21/12:00am - - - - - SE 13 17 7 9 - - -
 
Date/Time
CST
Temp
°C
App
Temp
°C
Dew
Point
Rel
Hum
%
Delta-T
°C
Wind Press
QNH
hPa
Press
MSL
hPa
Rain
since 9 am
mm
Dir
 
Spd
km/h
Gust
km/h
Spd
kts
Gust
kts
20/11:30pm - - - - - SE 11 15 6 8 - - -
20/11:00pm - - - - - SE 17 20 9 11 - - -
20/10:30pm - - - - - SE 15 20 8 11 - - -
20/10:00pm - - - - - SE 20 26 11 14 - - -
20/09:30pm - - - - - SSE 22 28 12 15 - - -
20/09:00pm - - - - - SSE 20 28 11 15 - - -
20/08:30pm - - - - - SSE 26 32 14 17 - - -
20/08:00pm - - - - - SSE 28 35 15 19 - - -
20/07:30pm - - - - - SSE 28 35 15 19 - - -
20/07:00pm - - - - - SSE 30 35 16 19 - - -
20/06:30pm - - - - - SSE 26 32 14 17 - - -
20/06:00pm - - - - - SSE 28 33 15 18 - - -
20/05:30pm - - - - - SSE 30 37 16 20 - - -
20/05:00pm - - - - - SSE 24 32 13 17 - - -
20/04:30pm - - - - - SE 24 32 13 17 - - -
20/04:00pm - - - - - SE 24 32 13 17 - - -
20/03:30pm - - - - - SE 22 30 12 16 - - -
20/03:00pm - - - - - SSE 22 30 12 16 - - -
20/02:30pm - - - - - SSE 20 30 11 16 - - -
20/02:00pm - - - - - SE 20 28 11 15 - - -
20/01:30pm - - - - - SE 24 32 13 17 - - -
20/01:00pm - - - - - SE 26 39 14 21 - - -
20/12:30pm - - - - - SE 24 33 13 18 - - -
20/12:00pm - - - - - ESE 26 35 14 19 - - -
20/11:30am - - - - - ESE 26 37 14 20 - - -
20/11:00am - - - - - ESE 26 33 14 18 - - -
20/10:30am - - - - - ESE 28 35 15 19 - - -
20/10:00am - - - - - ESE 30 37 16 20 - - -
20/09:30am - - - - - E 28 39 15 21 - - -
20/09:00am - - - - - ESE 22 30 12 16 - - -
20/08:30am - - - - - ESE 15 19 8 10 - - -
20/08:00am - - - - - E 9 15 5 8 - - -
20/07:30am - - - - - ESE 13 15 7 8 - - -
20/07:00am - - - - - ESE 15 17 8 9 - - -
20/06:30am - - - - - ESE 17 17 9 9 - - -
20/06:00am - - - - - ESE 15 17 8 9 - - -
20/05:30am - - - - - ESE 17 20 9 11 - - -
20/05:00am - - - - - ESE 15 19 8 10 - - -
20/04:30am - - - - - E 17 17 9 9 - - -
20/04:00am - - - - - ESE 13 15 7 8 - - -
20/03:30am - - - - - E 17 19 9 10 - - -
20/03:00am - - - - - ESE 13 15 7 8 - - -
20/02:30am - - - - - E 17 17 9 9 - - -
20/02:00am - - - - - ESE 15 17 8 9 - - -
20/01:30am - - - - - ESE 15 15 8 8 - - -
20/01:00am - - - - - ESE 15 17 8 9 - - -
20/12:30am - - - - - ESE 13 15 7 8 - - -
20/12:00am - - - - - ESE 13 13 7 7 - - -
 
Date/Time
CST
Temp
°C
App
Temp
°C
Dew
Point
Rel
Hum
%
Delta-T
°C
Wind Press
QNH
hPa
Press
MSL
hPa
Rain
since 9 am
mm
Dir
 
Spd
km/h
Gust
km/h
Spd
kts
Gust
kts
19/11:30pm - - - - - ESE 13 15 7 8 - - -
19/11:00pm - - - - - ESE 13 15 7 8 - - -
19/10:30pm - - - - - ESE 17 19 9 10 - - -
19/10:00pm - - - - - SE 15 19 8 10 - - -
19/09:30pm - - - - - SE 19 24 10 13 - - -
19/09:00pm - - - - - SE 20 28 11 15 - - -
19/08:30pm - - - - - SSE 24 32 13 17 - - -
19/08:00pm - - - - - SSE 28 33 15 18 - - -
19/07:30pm - - - - - SSE 28 35 15 19 - - -
19/07:00pm - - - - - SSE 30 35 16 19 - - -
19/06:30pm - - - - - SSE 24 32 13 17 - - -
19/06:00pm - - - - - SSE 28 35 15 19 - - -
19/05:30pm - - - - - SSE 32 37 17 20 - - -
19/05:00pm - - - - - SSE 33 41 18 22 - - -
19/04:30pm - - - - - SE 30 37 16 20 - - -
19/04:00pm - - - - - SE 30 41 16 22 - - -
19/03:30pm - - - - - SE 32 39 17 21 - - -
19/03:00pm - - - - - SE 30 37 16 20 - - -
19/02:30pm - - - - - SE 26 33 14 18 - - -
19/02:00pm - - - - - SE 22 32 12 17 - - -
19/01:30pm - - - - - SSE 28 43 15 23 - - -
19/01:00pm - - - - - SE 32 43 17 23 - - -
19/12:30pm - - - - - SE 37 48 20 26 - - -
19/12:00pm - - - - - SSE 28 37 15 20 - - -
19/11:30am - - - - - SSE 37 46 20 25 - - -
19/11:00am - - - - - SE 32 39 17 21 - - -
19/10:30am - - - - - SSE 33 41 18 22 - - -
19/10:00am - - - - - SSE 32 41 17 22 - - -
19/09:30am - - - - - SSE 35 41 19 22 - - -
19/09:00am - - - - - S 33 41 18 22 - - -
19/08:30am - - - - - SSE 32 39 17 21 - - -
19/08:00am - - - - - SSE 35 44 19 24 - - -
19/07:30am - - - - - S 33 44 18 24 - - -
19/07:00am - - - - - S 30 37 16 20 - - -
19/06:30am - - - - - S 32 37 17 20 - - -
19/06:00am - - - - - SSE 33 39 18 21 - - -
19/05:30am - - - - - SSE 32 39 17 21 - - -
19/05:00am - - - - - SSE 30 39 16 21 - - -
19/04:30am - - - - - SSE 32 39 17 21 - - -
19/04:00am - - - - - SSE 32 37 17 20 - - -
19/03:30am - - - - - SSE 30 35 16 19 - - -
19/03:00am - - - - - SSE 26 32 14 17 - - -
19/02:30am - - - - - SSE 28 35 15 19 - - -
19/02:00am - - - - - S 32 39 17 21 - - -
19/01:30am - - - - - SSE 28 35 15 19 - - -
19/01:00am - - - - - SSE 30 37 16 20 - - -
19/12:30am - - - - - SSE 28 33 15 18 - - -
19/12:00am - - - - - SSE 28 35 15 19 - - -
 
Date/Time
CST
Temp
°C
App
Temp
°C
Dew
Point
Rel
Hum
%
Delta-T
°C
Wind Press
QNH
hPa
Press
MSL
hPa
Rain
since 9 am
mm
Dir
 
Spd
km/h
Gust
km/h
Spd
kts
Gust
kts
18/11:30pm - - - - - SSE 30 37 16 20 - - -
18/11:00pm - - - - - SSE 28 35 15 19 - - -
18/10:30pm - - - - - SSE 30 33 16 18 - - -
18/10:00pm - - - - - S 33 41 18 22 - - -
18/09:30pm - - - - - S 33 41 18 22 - - -

Other Formats:

Comma delimited format used in spreadsheet applications
http://www.bom.gov.au/fwo/IDS60801/IDS60801.94666.axf

JavaScript Object Notation format (JSON) in row-major order
http://www.bom.gov.au/fwo/IDS60801/IDS60801.94666.json